METAR AND TAF INFORMATION
METAR FOR EDDL
ADDS - METARS form results

(2307 UTC 22 May 2018)
Data provider http://aviationweather.gov/adds/metars/
 
METAR text: EDDL 222250Z 04003KT 9000 NSC 15/15 Q1016 NOSIG
Conditions at: EDDL (DUESSELDORF , DE) observed 2250 UTC 22 May 2018
Temperature: 15.0°C (59°F)
Dewpoint: 15.0°C (59°F) [RH = 100%]
Pressure (altimeter): 30.00 inches Hg (1016.0 mb)
Winds: from the NE (40 degrees) at 3 MPH (3 knots; 1.6 m/s)
Visibility: 6 miles (9 km)
Ceiling: at least 12,000 feet AGL
Clouds: sky clear below 12,000 feet AGL
Weather: no significant weather observed at this time

METAR text: EDDL 222220Z 05003KT 9000 NSC 15/14 Q1015 NOSIG
Conditions at: EDDL (DUESSELDORF , DE) observed 2220 UTC 22 May 2018
Temperature: 15.0°C (59°F)
Dewpoint: 14.0°C (57°F) [RH = 94%]
Pressure (altimeter): 29.97 inches Hg (1015.0 mb)
Winds: from the NE (50 degrees) at 3 MPH (3 knots; 1.6 m/s)
Visibility: 6 miles (9 km)
Ceiling: at least 12,000 feet AGL
Clouds: sky clear below 12,000 feet AGL
Weather: no significant weather observed at this time

Forecast for: EDDL (DUESSELDORF , DE)
Text: TAF EDDL 221700Z 2218/2324 VRB03KT 9999 SCT025
Forecast period: 1800 UTC 22 May 2018 to 0800 UTC 23 May 2018
Forecast type: FROM: standard forecast or significant change
Winds: variable direction winds at 3 MPH (3 knots; 1.6 m/s)
Visibility: 6 or more miles (10+ km)
Clouds: scattered clouds at 2500 feet AGL
Weather: no significant weather forecast for this period
Forecast for: EDDL (DUESSELDORF , DE)
Text: TAF EDDL 221700Z 2218/2324 VRB03KT 9999 SCT025
Forecast period: 1800 UTC 22 May 2018 to 0800 UTC 23 May 2018
Forecast type: FROM: standard forecast or significant change
Winds: variable direction winds at 3 MPH (3 knots; 1.6 m/s)
Visibility: 6 or more miles (10+ km)
Clouds: scattered clouds at 2500 feet AGL
Weather: no significant weather forecast for this period
Forecast for: EDDL (DUESSELDORF , DE)
Text: TAF EDDL 221700Z 2218/2324 VRB03KT 9999 SCT025
Forecast period: 1800 to 2100 UTC 22 May 2018
Forecast type: TEMPORARY: The following changes expected for less than half the time period
Winds: from the S (170 degrees) at 12 MPH (10 knots; 5.2 m/s)
Ceiling: 2000 feet AGL
Clouds: broken clouds at 2000 feet AGL
Weather: -TSRA  (light rain associated with thunderstorm(s))
Forecast for: EDDL (DUESSELDORF , DE)
Text: TAF EDDL 221700Z 2218/2324 VRB03KT 9999 SCT025
Forecast period: 1800 to 2100 UTC 22 May 2018
Forecast type: TEMPORARY: The following changes expected for less than half the time period
Winds: from the S (170 degrees) at 12 MPH (10 knots; 5.2 m/s)
Ceiling: 2000 feet AGL
Clouds: broken clouds at 2000 feet AGL
Weather: -TSRA  (light rain associated with thunderstorm(s))
Forecast for: EDDL (DUESSELDORF , DE)
Text: TAF EDDL 221700Z 2218/2324 VRB03KT 9999 SCT025
Forecast period: 0200 to 0500 UTC 23 May 2018
Forecast type: TEMPORARY: The following changes expected for less than half the time period
Ceiling: 2000 feet AGL
Clouds: broken clouds at 2000 feet AGL
Weather: SHRA  (rain showers)
Forecast for: EDDL (DUESSELDORF , DE)
Text: TAF EDDL 221700Z 2218/2324 VRB03KT 9999 SCT025
Forecast period: 0200 to 0500 UTC 23 May 2018
Forecast type: TEMPORARY: The following changes expected for less than half the time period
Ceiling: 2000 feet AGL
Clouds: broken clouds at 2000 feet AGL
Weather: SHRA  (rain showers)
Forecast for: EDDL (DUESSELDORF , DE)
Text: TAF EDDL 221700Z 2218/2324 VRB03KT 9999 SCT025
Forecast period: 0800 UTC 23 May 2018 to 0000 UTC 24 May 2018
Forecast type: BECOMING: Conditions expected to become as follows by 1100 UTC 23 May 2018
Winds: from the NE (40 degrees) at 13 MPH (11 knots; 5.7 m/s)
Visibility: 6 or more miles (10+ km)
Clouds: scattered clouds at 2500 feet AGL
Weather: no significant weather forecast for this period
Forecast for: EDDL (DUESSELDORF , DE)
Text: TAF EDDL 221700Z 2218/2324 VRB03KT 9999 SCT025
Forecast period: 0800 UTC 23 May 2018 to 0000 UTC 24 May 2018
Forecast type: BECOMING: Conditions expected to become as follows by 1100 UTC 23 May 2018
Winds: from the NE (40 degrees) at 13 MPH (11 knots; 5.7 m/s)
Visibility: 6 or more miles (10+ km)
Clouds: scattered clouds at 2500 feet AGL
Weather: no significant weather forecast for this period

 AIRPORT MAP

 RUNWAY INFORMATION
Runway 05L Runway length 8858 ft Runway width 148 ft
Runway elevation 116 ft Runway displaced threshold 984 ft Runway heading 53
Runway 23R Runway length 8858 ft Runway width 148 ft
Runway elevation 124 ft Runway displaced threshold 984 ft Runway heading 233
Runway 05R Runway length 9842 ft Runway width 148 ft
Runway elevation 121 ft Runway displaced threshold 984 ft Runway heading 53
Runway 23L Runway length 9842 ft Runway width 148 ft
Runway elevation 138 ft Runway displaced threshold 984 ft Runway heading 233

 AIRPORT FREQUENCIES
Type ACC Name LANGEN RAD Frequency 128.55 MHZ
Type APP Name DIR Frequency 128.65 MHZ
Type ATIS Name ATIS Frequency 123.775 MHZ
Type CLD Name CLNC DEL Frequency 121.775 MHZ
Type GND Name GND Frequency 121.9 MHZ
Type INFO Name LANGEN INF Frequency 129.875 MHZ
Type MISC Name DE ICING Frequency 135.225 MHZ
Type TWR Name TWR Frequency 118.3 MHZ

 AIRPORT NEAR NAVIGATION AIDS
Type VOR-DME Name Dusseldorf Frequency 115150 KHZ



Powered by Virtual Airlines Manager [v2.6.2]